Integrity — WDF4881 — position and weather

sailwx.info

Track history (hours):
 
Tides and Currents Weather Stations Pressure Air Temp Water Temp Dewpoint Dewpoint Depression Visibility Wind Speed Wind Dir Waves Ship Positions

Integrity

Owner: Canal Barge Company, Inc., Belle Chasse, LA. More information available from US FCC via Universal Licensing System and Coast Guard Vessel Documentation Center.

Last reported at 2017-Jan-23 08:33 UTC. Time now 2017-Jan-23 08:41 UTC.
Position N 29°37' W 095°01'.

Length 19 m; draft 2.8 m.

Type: Towing. MMSI: 367456830.

Date/timePositionNaut miles runAvg speedWind from/ knotsBaromVisibWave heightAir tempDewpointWater temp
2017-Jan-23 08:33N 29°37' W 095°01'0 0.0
2017-Jan-23 07:33N 29°37' W 095°01'0 0.0
2017-Jan-23 06:33N 29°37' W 095°01'0 0.0
2017-Jan-23 05:33N 29°37' W 095°01'0 0.0
2017-Jan-23 04:33N 29°37' W 095°01'0 0.0
2017-Jan-23 03:33N 29°37' W 095°01'0 0.0
2017-Jan-23 02:33N 29°37' W 095°01'0 0.0
2017-Jan-23 01:33N 29°37' W 095°01'0 0.0
2017-Jan-23 00:33N 29°37' W 095°01'0 0.0
2017-Jan-22 23:33N 29°37' W 095°01'0 0.1
2017-Jan-22 22:33N 29°37' W 095°01'0 0.0
2017-Jan-22 20:33N 29°37' W 095°01'0 0.1
2017-Jan-22 19:33N 29°37' W 095°01'0 0.1
2017-Jan-22 18:33N 29°37' W 095°01'0 0.0
2017-Jan-22 17:33N 29°37' W 095°01'0 0.0
2017-Jan-22 16:33N 29°37' W 095°01'0 0.1
2017-Jan-22 15:33N 29°37' W 095°01'0 0.1
2017-Jan-22 14:33N 29°37' W 095°01'0 0.1
2017-Jan-22 13:33N 29°37' W 095°01'0 0.0
2017-Jan-22 12:33N 29°37' W 095°01'0 0.0
2017-Jan-22 11:33N 29°37' W 095°01'0 0.0
2017-Jan-22 10:33N 29°37' W 095°01'0 0.0
2017-Jan-22 09:33N 29°37' W 095°01'0 0.0
2017-Jan-22 08:33N 29°37' W 095°01'0 0.0
2017-Jan-22 07:33N 29°37' W 095°01'0 0.0
2017-Jan-22 06:33N 29°37' W 095°01'0 0.0
2017-Jan-22 05:33N 29°37' W 095°01'0 0.0
2017-Jan-22 04:33N 29°37' W 095°01'0 0.0
2017-Jan-22 03:33N 29°37' W 095°01'0 0.0
2017-Jan-22 02:33N 29°37' W 095°01'0 0.0
2017-Jan-22 01:33N 29°37' W 095°01'0 0.0
2017-Jan-22 00:33N 29°37' W 095°01'0 0.1
2017-Jan-21 23:33N 29°37' W 095°02'0 0.0
2017-Jan-21 22:33N 29°37' W 095°01'0 0.0
2017-Jan-21 21:33N 29°37' W 095°01'0 0.0
2017-Jan-21 20:33N 29°37' W 095°01'0 0.1
2017-Jan-21 19:33N 29°37' W 095°01'0 0.1
2017-Jan-21 18:33N 29°37' W 095°02'0 0.0
2017-Jan-21 17:33N 29°37' W 095°02'0 0.0
2017-Jan-21 16:33N 29°37' W 095°02'0 0.0
2017-Jan-21 15:33N 29°37' W 095°02'0 0.0
2017-Jan-21 14:33N 29°37' W 095°02'0 0.0
2017-Jan-21 13:33N 29°37' W 095°02'0 0.0
2017-Jan-21 10:09N 29°37' W 095°02'0 0.1
2017-Jan-21 09:33N 29°37' W 095°01'0 0.0
2017-Jan-21 08:33N 29°37' W 095°01'0 0.0
2017-Jan-21 07:33N 29°37' W 095°01'0 0.0
2017-Jan-21 06:33N 29°37' W 095°01'0 0.0
2017-Jan-21 04:33N 29°37' W 095°01'0 0.0
2017-Jan-21 03:33N 29°37' W 095°01'0 0.1
2017-Jan-21 02:33N 29°37' W 095°01'4 3.2
2017-Jan-21 01:27N 29°37' W 094°57'6 6.7
2017-Jan-21 00:33N 29°32' W 094°53'  
2017-Jan-17 21:33N 29°27' W 094°51'5 5.1
2017-Jan-17 20:33N 29°31' W 094°53'5 5.0
2017-Jan-17 19:33N 29°36' W 094°57'6 5.6
2017-Jan-17 18:33N 29°41' W 094°59'4 4.3
2017-Jan-17 17:33N 29°44' W 095°02'1 0.6
2017-Jan-17 16:11N 29°44' W 095°03'3 0.2
2017-Jan-16 23:31N 29°46' W 095°05'1 0.2
2017-Jan-16 16:05N 29°46' W 095°06'1 2.2
2017-Jan-16 15:32N 29°46' W 095°05'1 1.1
2017-Jan-16 14:30N 29°47' W 095°04'1 0.1
2017-Jan-16 00:09N 29°46' W 095°05'4 6.7
2017-Jan-15 23:32N 29°43' W 095°01'7 7.1
2017-Jan-15 22:33N 29°37' W 094°58'3 3.5
2017-Jan-15 21:33N 29°37' W 095°01'0 0.0
2017-Jan-15 20:33N 29°37' W 095°01'0 0.0
2017-Jan-15 19:33N 29°37' W 095°01'0 0.0
2017-Jan-15 18:33N 29°37' W 095°01'0 0.0
2017-Jan-15 17:33N 29°37' W 095°01'0 0.0
2017-Jan-15 16:33N 29°37' W 095°01'0 0.0
2017-Jan-15 15:33N 29°37' W 095°01'0 0.0
2017-Jan-15 14:33N 29°37' W 095°01'0 0.0
2017-Jan-15 13:32N 29°37' W 095°01'0 0.0
2017-Jan-15 12:33N 29°37' W 095°01'0 0.0
2017-Jan-15 11:33N 29°37' W 095°01'0 0.0
2017-Jan-15 10:33N 29°37' W 095°01'0 0.0
2017-Jan-15 09:33N 29°37' W 095°01'0 0.0
2017-Jan-15 08:33N 29°37' W 095°01'3 3.2
2017-Jan-15 07:32N 29°37' W 094°58'6 4.8
2017-Jan-15 06:19N 29°42' W 095°01'6 0.8
2017-Jan-14 23:32N 29°47' W 095°04'5 5.2
2017-Jan-14 22:33N 29°43' W 095°01'6 6.4
2017-Jan-14 21:33N 29°37' W 094°58'3 3.1
2017-Jan-14 20:33N 29°37' W 095°01'0 0.0
2017-Jan-14 19:33N 29°37' W 095°01'0 0.0
2017-Jan-14 18:33N 29°37' W 095°01'0 0.0
2017-Jan-14 17:33N 29°37' W 095°01'0 0.0
2017-Jan-14 16:33N 29°37' W 095°01'0 0.0
2017-Jan-14 15:33N 29°37' W 095°01'0 0.0
2017-Jan-14 14:33N 29°37' W 095°01'0 0.0
2017-Jan-14 13:33N 29°37' W 095°01'0 0.0
2017-Jan-14 03:32N 29°37' W 095°01'5 1.2
2017-Jan-13 23:33N 29°41' W 094°59'4 4.2
2017-Jan-13 22:32N 29°44' W 095°02'3 2.2
2017-Jan-13 21:09N 29°46' W 095°05'0 0.0
2017-Jan-13 20:33N 29°46' W 095°05'0 0.0
2017-Jan-13 19:33N 29°46' W 095°05'0 0.0
2017-Jan-13 18:33N 29°46' W 095°05'0 0.0
2017-Jan-13 17:33N 29°46' W 095°05'1 1.1
2017-Jan-13 16:31N 29°47' W 095°04'2 2.1
2017-Jan-13 15:33N 29°46' W 095°06'  
Track history (hours):
 
Tides and Currents Weather Stations Pressure Air Temp Water Temp Dewpoint Dewpoint Depression Visibility Wind Speed Wind Dir Waves Ship Positions

Integrity

Owner: Canal Barge Company, Inc., Belle Chasse, LA. More information available from US FCC via Universal Licensing System and Coast Guard Vessel Documentation Center.

Last reported at 2017-Jan-23 08:33 UTC. Time now 2017-Jan-23 08:41 UTC.
Position N 29°37' W 095°01'.

Length 19 m; draft 2.8 m.

Type: Towing. MMSI: 367456830.

Date/timePositionNaut miles runAvg speedWind from/ knotsBaromVisibWave heightAir tempDewpointWater temp
2017-Jan-23 08:33N 29°37' W 095°01'0 0.0
2017-Jan-23 07:33N 29°37' W 095°01'0 0.0
2017-Jan-23 06:33N 29°37' W 095°01'0 0.0
2017-Jan-23 05:33N 29°37' W 095°01'0 0.0
2017-Jan-23 04:33N 29°37' W 095°01'0 0.0
2017-Jan-23 03:33N 29°37' W 095°01'0 0.0
2017-Jan-23 02:33N 29°37' W 095°01'0 0.0
2017-Jan-23 01:33N 29°37' W 095°01'0 0.0
2017-Jan-23 00:33N 29°37' W 095°01'0 0.0
2017-Jan-22 23:33N 29°37' W 095°01'0 0.1
2017-Jan-22 22:33N 29°37' W 095°01'0 0.0
2017-Jan-22 20:33N 29°37' W 095°01'0 0.1
2017-Jan-22 19:33N 29°37' W 095°01'0 0.1
2017-Jan-22 18:33N 29°37' W 095°01'0 0.0
2017-Jan-22 17:33N 29°37' W 095°01'0 0.0
2017-Jan-22 16:33N 29°37' W 095°01'0 0.1
2017-Jan-22 15:33N 29°37' W 095°01'0 0.1
2017-Jan-22 14:33N 29°37' W 095°01'0 0.1
2017-Jan-22 13:33N 29°37' W 095°01'0 0.0
2017-Jan-22 12:33N 29°37' W 095°01'0 0.0
2017-Jan-22 11:33N 29°37' W 095°01'0 0.0
2017-Jan-22 10:33N 29°37' W 095°01'0 0.0
2017-Jan-22 09:33N 29°37' W 095°01'0 0.0
2017-Jan-22 08:33N 29°37' W 095°01'0 0.0
2017-Jan-22 07:33N 29°37' W 095°01'0 0.0
2017-Jan-22 06:33N 29°37' W 095°01'0 0.0
2017-Jan-22 05:33N 29°37' W 095°01'0 0.0
2017-Jan-22 04:33N 29°37' W 095°01'0 0.0
2017-Jan-22 03:33N 29°37' W 095°01'0 0.0
2017-Jan-22 02:33N 29°37' W 095°01'0 0.0
2017-Jan-22 01:33N 29°37' W 095°01'0 0.0
2017-Jan-22 00:33N 29°37' W 095°01'0 0.1
2017-Jan-21 23:33N 29°37' W 095°02'0 0.0
2017-Jan-21 22:33N 29°37' W 095°01'0 0.0
2017-Jan-21 21:33N 29°37' W 095°01'0 0.0
2017-Jan-21 20:33N 29°37' W 095°01'0 0.1
2017-Jan-21 19:33N 29°37' W 095°01'0 0.1
2017-Jan-21 18:33N 29°37' W 095°02'0 0.0
2017-Jan-21 17:33N 29°37' W 095°02'0 0.0
2017-Jan-21 16:33N 29°37' W 095°02'0 0.0
2017-Jan-21 15:33N 29°37' W 095°02'0 0.0
2017-Jan-21 14:33N 29°37' W 095°02'0 0.0
2017-Jan-21 13:33N 29°37' W 095°02'0 0.0
2017-Jan-21 10:09N 29°37' W 095°02'0 0.1
2017-Jan-21 09:33N 29°37' W 095°01'0 0.0
2017-Jan-21 08:33N 29°37' W 095°01'0 0.0
2017-Jan-21 07:33N 29°37' W 095°01'0 0.0
2017-Jan-21 06:33N 29°37' W 095°01'0 0.0
2017-Jan-21 04:33N 29°37' W 095°01'0 0.0
2017-Jan-21 03:33N 29°37' W 095°01'0 0.1
2017-Jan-21 02:33N 29°37' W 095°01'4 3.2
2017-Jan-21 01:27N 29°37' W 094°57'6 6.7
2017-Jan-21 00:33N 29°32' W 094°53'  
2017-Jan-17 21:33N 29°27' W 094°51'5 5.1
2017-Jan-17 20:33N 29°31' W 094°53'5 5.0
2017-Jan-17 19:33N 29°36' W 094°57'6 5.6
2017-Jan-17 18:33N 29°41' W 094°59'4 4.3
2017-Jan-17 17:33N 29°44' W 095°02'1 0.6
2017-Jan-17 16:11N 29°44' W 095°03'3 0.2
2017-Jan-16 23:31N 29°46' W 095°05'1 0.2
2017-Jan-16 16:05N 29°46' W 095°06'1 2.2
2017-Jan-16 15:32N 29°46' W 095°05'1 1.1
2017-Jan-16 14:30N 29°47' W 095°04'1 0.1
2017-Jan-16 00:09N 29°46' W 095°05'4 6.7
2017-Jan-15 23:32N 29°43' W 095°01'7 7.1
2017-Jan-15 22:33N 29°37' W 094°58'3 3.5
2017-Jan-15 21:33N 29°37' W 095°01'0 0.0
2017-Jan-15 20:33N 29°37' W 095°01'0 0.0
2017-Jan-15 19:33N 29°37' W 095°01'0 0.0
2017-Jan-15 18:33N 29°37' W 095°01'0 0.0
2017-Jan-15 17:33N 29°37' W 095°01'0 0.0
2017-Jan-15 16:33N 29°37' W 095°01'0 0.0
2017-Jan-15 15:33N 29°37' W 095°01'0 0.0
2017-Jan-15 14:33N 29°37' W 095°01'0 0.0
2017-Jan-15 13:32N 29°37' W 095°01'0 0.0
2017-Jan-15 12:33N 29°37' W 095°01'0 0.0
2017-Jan-15 11:33N 29°37' W 095°01'0 0.0
2017-Jan-15 10:33N 29°37' W 095°01'0 0.0
2017-Jan-15 09:33N 29°37' W 095°01'0 0.0
2017-Jan-15 08:33N 29°37' W 095°01'3 3.2
2017-Jan-15 07:32N 29°37' W 094°58'6 4.8
2017-Jan-15 06:19N 29°42' W 095°01'6 0.8
2017-Jan-14 23:32N 29°47' W 095°04'5 5.2
2017-Jan-14 22:33N 29°43' W 095°01'6 6.4
2017-Jan-14 21:33N 29°37' W 094°58'3 3.1
2017-Jan-14 20:33N 29°37' W 095°01'0 0.0
2017-Jan-14 19:33N 29°37' W 095°01'0 0.0
2017-Jan-14 18:33N 29°37' W 095°01'0 0.0
2017-Jan-14 17:33N 29°37' W 095°01'0 0.0
2017-Jan-14 16:33N 29°37' W 095°01'0 0.0
2017-Jan-14 15:33N 29°37' W 095°01'0 0.0
2017-Jan-14 14:33N 29°37' W 095°01'0 0.0
2017-Jan-14 13:33N 29°37' W 095°01'0 0.0
2017-Jan-14 03:32N 29°37' W 095°01'5 1.2
2017-Jan-13 23:33N 29°41' W 094°59'4 4.2
2017-Jan-13 22:32N 29°44' W 095°02'3 2.2
2017-Jan-13 21:09N 29°46' W 095°05'0 0.0
2017-Jan-13 20:33N 29°46' W 095°05'0 0.0
2017-Jan-13 19:33N 29°46' W 095°05'0 0.0
2017-Jan-13 18:33N 29°46' W 095°05'0 0.0
2017-Jan-13 17:33N 29°46' W 095°05'1 1.1
2017-Jan-13 16:31N 29°47' W 095°04'2 2.1
2017-Jan-13 15:33N 29°46' W 095°06'  

Dump ship's entire track history